AirNav   Everest Fuels
 
 927 users online  

53FL University of Florida Heliport
Gainesville, Florida, USA

GOING TO GAINESVILLE?


FAA INFORMATION EFFECTIVE 05 DECEMBER 2019

Location

FAA Identifier: 53FL
Lat/Long: 29-38-38.8830N 082-21-11.3770W
29-38.648050N 082-21.189617W
29.6441342,-82.3531603
(estimated)
Elevation: 125 ft. / 38 m (estimated)
Variation: 02W (1985)
Time zone: UTC -5 (UTC -4 during Daylight Saving Time)
Zip code: 32603

Heliport Operations

Heliport use: Private use. Permission required prior to landing
Activation date: 07/1990
Control tower: no
ARTCC: JACKSONVILLE CENTER
FSS: GAINESVILLE FLIGHT SERVICE STATION
Attendance: UNATNDD
Wind indicator: yes
Segmented circle: no

Heliport Communications

WX ASOS at GNV (5 nm NE): PHONE 352-335-8672
WX AWOS-3T at X60 (18 nm S): 118.425 (352-528-9949)
WX AWOS-3 at 42J (20 nm NE): 124.275 (352-473-8273)

Nearby radio navigation aids

VOR radial/distance  VOR name  Freq  Var
GNVr239/5.1GATORS VORTAC116.2004W
OCFr347/28.8OCALA VORTAC113.7000E
CTYr088/36.4CROSS CITY VORTAC112.0002W

 
NDB name  Hdg/Dist  Freq  Var  ID
WYNDS265/9.626904WGN --. -.
LAKE CITY163/34.520403WLCQ .-.. -.-. --.-

Heliport Services

Runway Information

Helipad H1

Dimensions: 30 x 30 ft. / 9 x 9 m
Surface: turf
Traffic pattern: leftleft

Heliport Ownership and Management from official FAA records

Ownership: Privately-owned
Owner: UNIVERSITY OF FLORIDA
226 TIGERT HALL
GAINESVILLE, FL 32604
Phone 904-373-0517
Manager: DEWEY G. OLIVER
PO BOX 14485
GAINESVILLE, FL 32604
Phone 904-373-0517

Additional Remarks

A52-H1 HAS 60' LIGHT POLES AROUND HELIPORT BOUNDARY.
FOR CD CTC JACKSONVILLE APCH AT 904-741-0284.

Instrument Procedures

There are no published instrument procedures at 53FL.

Some nearby airports with instrument procedures:

KGNV - Gainesville Regional Airport (5 nm NE)
X60 - Williston Municipal Airport (18 nm S)
42J - Keystone Airpark (20 nm NE)
KOCF - Ocala International Airport-Jim Taylor Field (29 nm S)
KLCQ - Lake City Gateway Airport (34 nm N)
 
Loc | Ops | Rwys | IFR | FBO | Links
Com | Nav | Svcs | Stats | Notes
Area around 53FL (University of Florida Heliport)
 
Road maps at: MapQuest Bing Google
 
Aerial photo
No photo
 
Sectional chart

 
Airport distance calculator
Flying to University of Florida Heliport? Find the distance to fly.

From to 53FL

Sunrise and sunset
Times for 13-Dec-2019
 Local
(UTC-5)
 Zulu
(UTC)
Morning civil twilight06:5011:50
Sunrise07:1712:17
Sunset17:3122:31
Evening civil twilight17:5722:57

Current date and time
Zulu (UTC)  13-Dec-2019 13:30:36
Local (UTC-5)  13-Dec-2019 08:30:36
 
METAR
KGNV 
5nm NE 
131253Z 33004KT 10SM OVC008 17/16 A3004 RMK AO2 RAE02 CIG 008V011 SLP171 P0000 T01670161
KX60 
18nm S 
118.425 352-528-9949
131315Z AUTO 00000KT 1/2SM VCTSFG OVC002 18/18 A3001 RMK AO2 T01760176
K42J 
20nm NE 
131315Z AUTO 33006KT 3SM BR OVC003 17/17 A3002 RMK A01 TSNO
TAF
KGNV 
5nm NE 
131120Z 1312/1412 VRB04KT 3SM -RA BR OVC003 FM131300 VRB04KT 5SM -RA BR BKN005 OVC010 FM131500 16006KT P6SM VCSH BKN010 OVC020 FM131800 21008KT P6SM VCSH BKN015 OVC030 FM132300 19004KT 6SM BR SCT010 BKN020 OVC030 FM140300 19006KT 3SM BR BKN005 OVC010 FM140800 22012KT 3SM SHRA VCTS BKN010CB OVC020
NOTAMs
Click for the latest NOTAMs
NOTAMs are issued by the DoD/FAA and will open in a separate window not controlled by AirNav.

 

 
 

Would you like to see your business listed on this page?

 If your business provides an interesting product or service to pilots, flight crews, aircraft, or users of the University of Florida Heliport, you should consider listing it here.  To start the listing process, click on the button below
 
Add a business
 

Other Pages about University of Florida Heliport

Update a link
 
Copyright © AirNav, LLC. All rights reserved. Privacy Policy  Contact